Time;durP1;ratioP1;P1;durP2;ratioP2;P2;SDS_P1;SDS_P2;PMS_P1;PMS_P2;Temp;Humidity;BMP_temperature;BMP_pressure;BME280_temperature;BME280_humidity;BME280_pressure;Samples;Min_cycle;Max_cycle;Signal;HPM_P1;HPM_P2
2022/06/13 00:00:31;;;;;;;2.22;1.55;;;25.10;42.90;;;28.95;28.08;101557.53;5114211;28;20074;-12
2022/06/13 00:02:58;;;;;;;2.72;1.15;;;25.10;42.90;;;28.98;28.12;101562.63;5114171;28;20122;-12
2022/06/13 00:05:24;;;;;;;2.28;1.33;;;25.10;42.90;;;28.96;27.96;101563.75;5114632;28;20043;-12
2022/06/13 00:07:50;;;;;;;2.22;1.60;;;25.10;42.90;;;29.00;28.03;101570.56;5114157;28;20054;-12
2022/06/13 00:10:16;;;;;;;2.60;1.35;;;25.10;43.00;;;28.95;28.21;101560.22;5114037;28;20044;-12
2022/06/13 00:12:43;;;;;;;2.22;1.35;;;25.10;43.00;;;29.00;27.97;101559.78;5114129;28;20043;-12
2022/06/13 00:15:12;;;;;;;2.05;1.25;;;25.10;43.00;;;28.98;28.07;101554.53;5113840;28;20555;-12
2022/06/13 00:17:38;;;;;;;2.17;1.30;;;25.10;43.00;;;29.00;28.06;101560.66;5095838;28;20086;-12
2022/06/13 00:20:06;;;;;;;2.67;1.20;;;25.10;42.90;;;28.94;27.95;101538.81;5113860;28;20059;-12
2022/06/13 00:22:32;;;;;;;2.67;1.52;;;25.10;42.90;;;28.98;28.11;101554.53;5113881;28;20047;-12
2022/06/13 00:24:58;;;;;;;1.92;1.10;;;25.10;43.00;;;28.93;27.85;101540.63;5113831;28;20048;-12
2022/06/13 00:27:24;;;;;;;3.10;1.60;;;25.10;43.00;;;28.96;27.90;101556.53;5113848;28;20176;-12
2022/06/13 00:29:50;;;;;;;1.67;1.13;;;25.10;43.00;;;28.95;28.17;101544.06;5113720;28;20082;-12
2022/06/13 00:32:17;;;;;;;3.72;1.60;;;25.10;43.00;;;28.91;28.25;101526.44;5113261;28;20047;-12
2022/06/13 00:34:43;;;;;;;3.72;1.65;;;25.00;43.00;;;28.93;28.16;101537.94;5114416;28;20054;-12
2022/06/13 00:37:09;;;;;;;1.77;1.30;;;25.00;43.00;;;28.93;28.14;101526.31;5114052;28;20079;-12
2022/06/13 00:39:35;;;;;;;1.58;1.27;;;25.00;43.00;;;28.91;27.87;101531.84;5113646;28;20071;-12
2022/06/13 00:42:01;;;;;;;2.50;1.27;;;25.00;43.00;;;28.90;28.21;101522.06;5094070;28;20074;-12
2022/06/13 00:44:33;;;;;;;2.10;1.48;;;25.00;43.00;;;28.91;28.14;101531.00;5113960;28;20075;-12
2022/06/13 00:46:59;;;;;;;1.63;1.40;;;25.00;43.00;;;28.90;28.11;101523.88;5113595;28;20130;-12
2022/06/13 00:49:28;;;;;;;3.10;1.63;;;25.00;43.00;;;28.86;28.27;101526.00;5112189;28;20126;-12
2022/06/13 00:52:21;;;;;;;4.57;1.73;;;25.00;43.00;;;28.86;28.28;101527.84;5113500;28;20131;-12
2022/06/13 00:54:49;;;;;;;2.83;1.50;;;25.00;43.00;;;28.92;28.24;101525.47;5087049;28;20052;-12
2022/06/13 00:57:22;;;;;;;2.53;1.20;;;25.00;43.00;;;28.87;27.92;101516.06;5095469;28;20059;-12
2022/06/13 00:59:53;;;;;;;3.03;1.33;;;25.00;43.10;;;28.91;28.19;101528.31;5113567;28;20075;-12
2022/06/13 01:02:19;;;;;;;;;;;25.00;43.00;;;29.03;27.76;101527.22;5113975;28;20039;-12
2022/06/13 01:04:49;;;;;;;2.13;1.40;;;25.00;43.10;;;28.96;27.85;101532.28;5113388;28;19921;-12
2022/06/13 01:07:15;;;;;;;2.47;1.35;;;25.00;43.00;;;28.92;28.01;101529.97;5092977;28;20075;-12
2022/06/13 01:12:28;;;;;;;2.67;1.52;;;25.00;43.10;;;28.88;28.01;101537.47;5098186;28;20075;-12
2022/06/13 01:15:39;;;;;;;1.60;1.30;;;25.00;43.10;;;28.88;28.12;101539.31;5113227;28;20046;-12
2022/06/13 01:18:35;;;;;;;2.85;1.48;;;25.00;43.10;;;28.83;28.14;101537.00;5074599;28;20055;-12
2022/06/13 01:21:50;;;;;;;2.75;1.52;;;25.00;43.10;;;28.89;28.21;101549.97;5094976;28;20146;-12
2022/06/13 01:24:36;;;;;;;2.25;1.30;;;25.00;43.10;;;28.89;28.15;101538.34;5075883;28;20387;-12
2022/06/13 01:27:16;;;;;;;2.58;1.58;;;25.00;43.10;;;28.85;28.00;101535.03;5113099;28;20043;-12
2022/06/13 01:29:51;;;;;;;2.55;1.52;;;25.00;43.10;;;28.78;27.94;101526.63;5113051;28;20131;-12
2022/06/13 01:32:27;;;;;;;2.42;1.50;;;25.00;43.10;;;28.80;28.11;101531.88;5113052;28;20046;-12
2022/06/13 01:35:25;;;;;;;2.83;1.70;;;25.00;43.10;;;28.84;28.17;101533.34;5093558;28;20130;-12
2022/06/13 01:38:15;;;;;;;3.58;1.80;;;24.90;43.10;;;28.82;28.19;101530.78;5094537;28;20043;-12
2022/06/13 01:41:01;;;;;;;2.80;1.65;;;24.90;43.10;;;28.82;28.05;101533.47;5112777;28;20044;-12
2022/06/13 01:43:46;;;;;;;3.03;1.75;;;24.90;43.10;;;28.81;28.27;101522.84;5094912;28;20035;-12
2022/06/13 01:46:26;;;;;;;2.53;1.30;;;24.90;43.10;;;28.77;28.36;101524.94;5116781;28;20040;-12
2022/06/13 01:49:21;;;;;;;2.25;1.48;;;24.90;43.10;;;28.80;28.40;101518.44;5098344;28;20047;-12
2022/06/13 01:52:00;;;;;;;2.72;1.50;;;24.90;43.20;;;28.78;28.24;101520.41;5116401;28;20063;-12
2022/06/13 01:55:11;;;;;;;2.38;1.45;;;24.90;43.20;;;28.75;28.42;101510.78;5114395;28;20139;-12
2022/06/13 01:57:46;;;;;;;2.17;1.30;;;24.90;43.20;;;28.81;28.39;101517.47;5116705;28;20051;-12
2022/06/13 02:00:30;;;;;;;2.65;1.40;;;24.90;43.20;;;28.74;28.09;101510.91;5096703;28;20044;-12
2022/06/13 02:03:01;;;;;;;2.58;1.50;;;24.90;43.20;;;28.77;28.06;101516.88;5098045;28;20044;-12
2022/06/13 02:05:41;;;;;;;2.55;1.58;;;24.90;43.20;;;28.70;28.29;101499.56;5097912;28;20047;-12
2022/06/13 02:08:15;;;;;;;2.65;1.52;;;24.90;43.20;;;28.78;28.15;101513.19;5113096;28;20056;-12
2022/06/13 02:10:54;;;;;;;1.80;1.40;;;24.90;43.20;;;28.75;28.39;101505.41;5113831;28;20058;-12
2022/06/13 02:13:38;;;;;;;2.70;1.50;;;24.90;43.30;;;28.70;28.17;101496.88;5097873;28;20051;-12
2022/06/13 02:16:19;;;;;;;2.85;1.55;;;24.90;43.20;;;28.71;28.11;101492.31;5115873;28;20495;-12
2022/06/13 02:19:04;;;;;;;1.50;1.23;;;24.90;43.20;;;28.72;28.08;101494.00;5115926;28;20043;-12
2022/06/13 02:21:43;;;;;;;3.33;1.48;;;24.80;43.20;;;28.71;28.28;101495.84;5097737;28;20044;-12
2022/06/13 02:24:17;;;;;;;3.30;1.60;;;24.80;43.20;;;28.71;28.15;101493.16;5112945;28;20048;-12
2022/06/13 02:26:49;;;;;;;2.92;1.50;;;24.80;43.20;;;28.69;28.13;101494.31;5097814;28;20054;-12
2022/06/13 02:29:21;;;;;;;2.70;1.38;;;24.80;43.20;;;28.68;28.01;101492.59;5096298;28;20481;-12
2022/06/13 02:31:58;;;;;;;3.10;1.63;;;24.80;43.20;;;28.72;28.35;101505.66;5114850;28;20044;-12
2022/06/13 02:34:40;;;;;;;2.53;1.35;;;24.80;43.20;;;28.69;28.09;101503.22;5116347;28;20043;-12
2022/06/13 02:37:21;;;;;;;3.53;1.70;;;24.80;43.20;;;28.64;28.17;101503.59;5114168;28;20081;-13
2022/06/13 02:40:02;;;;;;;3.28;1.40;;;24.80;43.20;;;28.69;28.23;101510.44;5115639;28;20048;-12
2022/06/13 02:42:44;;;;;;;3.10;1.83;;;24.90;43.30;;;28.73;28.26;101511.88;5115937;28;20039;-12
2022/06/13 02:45:22;;;;;;;3.50;1.77;;;24.80;43.20;;;28.64;28.20;101503.59;5096852;28;20110;-12
2022/06/13 02:48:12;;;;;;;3.63;1.50;;;24.80;43.20;;;28.71;28.10;101512.00;5080102;28;20092;-12
2022/06/13 02:50:52;;;;;;;2.33;1.50;;;24.80;43.30;;;28.66;28.22;101514.25;5115488;28;20055;-12
2022/06/13 02:53:33;;;;;;;2.72;1.83;;;24.80;43.20;;;28.61;28.14;101503.00;5095897;28;20131;-12
2022/06/13 02:56:30;;;;;;;2.53;1.60;;;24.80;43.30;;;28.70;28.49;101507.63;5113757;28;20059;-12
2022/06/13 02:59:25;;;;;;;3.60;1.58;;;24.80;43.30;;;28.69;28.21;101503.22;5097160;28;20399;-12
2022/06/13 03:01:56;;;;;;;2.35;1.80;;;24.80;43.30;;;28.68;28.33;101498.81;5112993;28;20052;-12
2022/06/13 03:04:40;;;;;;;2.33;1.63;;;24.80;43.30;;;28.67;28.17;101494.44;5097098;28;20046;-12
2022/06/13 03:07:35;;;;;;;2.78;1.70;;;24.80;43.30;;;28.68;28.18;101492.59;5115080;28;20044;-12
2022/06/13 03:10:16;;;;;;;2.85;1.60;;;24.80;43.30;;;28.65;28.42;101491.00;5094859;28;20044;-12
2022/06/13 03:12:54;;;;;;;2.60;1.60;;;24.80;43.80;;;28.67;28.27;101482.78;5096949;28;20096;-12
2022/06/13 03:15:30;;;;;;;2.50;1.50;;;24.80;43.30;;;28.58;28.28;101465.59;5097014;28;20052;-12
2022/06/13 03:18:26;;;;;;;2.75;1.67;;;24.70;43.20;;;28.66;28.22;101460.41;5115508;28;20468;-12
2022/06/13 03:21:04;;;;;;;2.22;1.42;;;24.80;43.30;;;28.66;28.21;101456.88;5095674;28;20044;-12
2022/06/13 03:23:39;;;;;;;4.13;1.70;;;24.80;43.30;;;28.64;28.32;101451.63;5096438;28;20097;-12
2022/06/13 03:26:16;;;;;;;4.65;2.00;;;24.80;43.80;;;28.60;28.21;101453.75;5114940;28;20054;-12
2022/06/13 03:28:52;;;;;;;3.03;1.60;;;24.80;43.30;;;28.61;28.06;101462.66;5096610;28;20069;-12
2022/06/13 03:31:28;;;;;;;3.42;1.58;;;24.80;43.30;;;28.60;28.41;101469.88;5094434;28;20048;-12
2022/06/13 03:33:59;;;;;;;3.67;1.67;;;24.70;43.20;;;28.61;28.24;101468.03;5096473;28;20044;-12
2022/06/13 03:36:41;;;;;;;3.38;1.65;;;24.80;43.30;;;28.60;28.27;101477.06;5115145;28;20056;-12
2022/06/13 03:39:17;;;;;;;4.03;1.70;;;24.80;43.30;;;28.65;28.15;101482.91;5111893;28;20052;-12
2022/06/13 03:42:26;;;;;;;2.47;1.65;;;24.80;43.30;;;28.65;28.32;101485.59;5096443;28;20052;-12
2022/06/13 03:45:18;;;;;;;2.40;1.50;;;24.80;43.30;;;28.64;28.51;101489.31;5094482;28;20606;-12
2022/06/13 03:48:12;;;;;;;4.07;1.73;;;24.80;43.30;;;28.59;28.13;101483.47;5095504;28;20048;-12
2022/06/13 03:50:44;;;;;;;3.30;1.73;;;24.80;43.30;;;28.60;28.27;101485.16;5113263;28;20081;-12
2022/06/13 03:53:25;;;;;;;3.15;1.70;;;24.80;43.30;;;28.61;28.37;101492.25;5113863;28;20051;-12
2022/06/13 03:56:18;;;;;;;3.17;1.87;;;24.80;43.30;;;28.59;28.26;101484.31;5096572;28;20093;-12
2022/06/13 03:58:59;;;;;;;2.28;1.13;;;24.70;43.30;;;28.61;28.21;101482.34;5096082;28;20044;-12
2022/06/13 04:01:32;;;;;;;;;;;24.70;43.30;;;28.73;28.24;101483.13;5096521;28;20484;-12
2022/06/13 04:04:00;;;;;;;2.42;1.40;;;24.70;43.30;;;28.69;28.30;101502.38;5096140;28;19974;-12
2022/06/13 04:06:34;;;;;;;2.78;1.67;;;24.80;43.30;;;28.64;28.25;101497.38;5095058;28;20047;-12
2022/06/13 04:09:04;;;;;;;3.55;1.70;;;24.70;43.30;;;28.58;28.36;101484.44;5113899;28;20368;-12
2022/06/13 04:11:58;;;;;;;2.78;1.70;;;24.70;43.20;;;28.62;28.40;101500.19;5112950;28;20059;-12
2022/06/13 04:14:39;;;;;;;2.88;1.67;;;24.80;43.30;;;28.62;28.53;101502.88;5114511;28;20395;-12
2022/06/13 04:17:20;;;;;;;2.47;1.70;;;24.70;43.20;;;28.58;28.19;101487.13;5114621;28;20052;-12
2022/06/13 04:20:13;;;;;;;2.33;1.70;;;24.70;43.20;;;28.62;28.07;101505.56;5095998;28;20052;-12
2022/06/13 04:23:18;;;;;;;2.63;1.88;;;24.80;43.30;;;28.64;28.33;101490.16;5113994;28;20138;-12
2022/06/13 04:26:16;;;;;;;2.70;1.70;;;24.70;43.20;;;28.60;28.21;101488.72;5113962;28;20048;-12
2022/06/13 04:29:09;;;;;;;2.47;1.63;;;24.70;43.20;;;28.59;28.48;101494.22;5112530;28;20089;-12
2022/06/13 04:31:36;;;;;;;3.78;1.80;;;24.70;43.20;;;28.64;28.10;101500.91;5095491;28;20201;-12
2022/06/13 04:34:14;;;;;;;2.33;1.50;;;24.70;43.20;;;28.53;28.32;101492.84;5113839;28;20036;-12
2022/06/13 04:36:43;;;;;;;3.58;2.00;;;24.70;43.20;;;28.58;28.42;101497.88;5095935;28;20138;-12
2022/06/13 04:39:13;;;;;;;3.70;1.65;;;24.70;43.20;;;28.59;28.42;101500.44;5113914;28;20056;-12
2022/06/13 04:41:44;;;;;;;3.40;1.70;;;24.70;43.30;;;28.60;28.31;101498.59;5095610;28;20055;-12
2022/06/13 04:44:19;;;;;;;3.55;1.65;;;24.70;43.30;;;28.61;28.22;101503.84;5114103;28;20539;-12
2022/06/13 04:46:46;;;;;;;2.53;1.42;;;24.80;43.20;;;28.64;28.43;101506.28;5095167;28;20044;-13
2022/06/13 04:49:35;;;;;;;3.53;1.80;;;24.80;43.20;;;28.58;28.32;101503.28;5112597;28;20044;-12
2022/06/13 04:52:09;;;;;;;3.03;1.63;;;24.80;43.20;;;28.61;28.44;101492.25;5110509;28;20044;-12
2022/06/13 04:54:52;;;;;;;2.67;1.63;;;24.80;43.10;;;28.62;28.41;101497.50;5113587;28;20047;-12
2022/06/13 04:57:19;;;;;;;2.53;1.50;;;24.90;43.10;;;28.73;28.13;101506.50;5112064;28;20051;-12
2022/06/13 04:59:46;;;;;;;2.20;1.50;;;24.90;43.00;;;28.73;28.09;101501.13;5113458;28;20040;-12
2022/06/13 05:02:17;;;;;;;2.40;1.50;;;24.90;42.90;;;28.76;28.29;101500.84;5113468;28;20050;-12
2022/06/13 05:04:44;;;;;;;3.13;1.50;;;25.00;42.80;;;28.83;28.21;101491.25;5112515;28;20055;-12
2022/06/13 05:07:18;;;;;;;2.80;1.70;;;25.20;42.70;;;28.90;28.25;101497.84;5094928;28;20043;-12
2022/06/13 05:09:55;;;;;;;2.83;1.63;;;25.20;42.60;;;28.91;27.96;101491.47;5095710;28;20047;-12
2022/06/13 05:12:36;;;;;;;3.13;1.80;;;25.30;42.50;;;28.92;27.94;101485.09;5093767;28;20055;-12
2022/06/13 05:15:11;;;;;;;2.40;1.58;;;25.30;42.50;;;29.03;27.92;101494.91;5095172;28;20403;-12
2022/06/13 05:18:16;;;;;;;3.33;1.98;;;25.30;42.40;;;29.08;27.90;101494.53;5112978;28;20066;-12
2022/06/13 05:20:45;;;;;;;2.30;1.45;;;25.40;42.30;;;29.11;27.96;101492.41;5094617;28;20055;-12
2022/06/13 05:23:32;;;;;;;2.33;1.45;;;25.40;42.20;;;29.16;27.98;101495.56;5113368;28;20043;-12
2022/06/13 05:26:00;;;;;;;2.95;1.80;;;25.50;42.30;;;29.17;27.75;101491.09;5113297;28;20484;-12
2022/06/13 05:28:34;;;;;;;2.50;1.48;;;25.50;42.10;;;29.25;27.55;101493.09;5112971;28;20047;-12
2022/06/13 05:31:08;;;;;;;4.22;1.75;;;25.60;42.00;;;29.27;27.65;101489.28;5113554;28;20106;-12
2022/06/13 05:33:38;;;;;;;4.25;1.63;;;25.60;42.00;;;29.33;27.73;101493.25;5092812;28;20078;-12
2022/06/13 05:36:07;;;;;;;2.50;1.67;;;25.60;41.90;;;29.34;27.49;101487.75;5113108;28;20043;-12
2022/06/13 05:38:49;;;;;;;2.38;1.60;;;25.60;41.90;;;29.31;27.61;101481.78;5113249;28;20403;-12
2022/06/13 05:41:15;;;;;;;2.47;1.63;;;25.60;42.00;;;29.38;27.67;101496.41;5112827;28;20065;-12
2022/06/13 05:43:40;;;;;;;1.80;1.38;;;25.60;42.50;;;29.40;27.52;101489.03;5113351;28;20067;-12
2022/06/13 05:46:08;;;;;;;2.55;1.40;;;25.60;41.90;;;29.37;27.40;101487.47;5112849;28;20483;-12
2022/06/13 05:48:35;;;;;;;2.45;1.60;;;25.60;41.90;;;29.38;27.55;101482.94;5094113;28;20052;-12
2022/06/13 05:51:01;;;;;;;2.20;1.50;;;25.60;41.90;;;29.38;27.37;101485.63;5112692;28;20055;-12
2022/06/13 05:53:27;;;;;;;2.33;1.50;;;25.70;42.00;;;29.43;27.51;101490.63;5112602;28;20048;-12
2022/06/13 05:55:57;;;;;;;2.15;1.33;;;25.60;41.90;;;29.41;27.59;101492.59;5112481;28;20492;-12
2022/06/13 05:58:24;;;;;;;2.22;1.50;;;25.60;42.00;;;29.43;27.55;101488.75;5112010;28;20124;-12
2022/06/13 06:00:54;;;;;;;2.35;1.55;;;25.60;41.90;;;29.44;27.54;101487.78;5112517;28;20164;-12
2022/06/13 06:03:21;;;;;;;2.23;1.40;;;25.70;42.00;;;29.44;27.25;101489.63;5112442;28;20067;-12
2022/06/13 06:05:48;;;;;;;2.72;1.42;;;25.70;41.90;;;29.50;27.34;101499.84;5112579;28;20138;-12
2022/06/13 06:08:22;;;;;;;2.20;1.73;;;25.70;41.90;;;29.49;27.37;101495.47;5093767;28;20079;-12
2022/06/13 06:10:52;;;;;;;3.03;1.90;;;25.70;41.90;;;29.45;27.35;101494.00;5093418;28;20456;-12
2022/06/13 06:13:19;;;;;;;2.40;1.40;;;25.70;41.90;;;29.52;27.38;101497.88;5111951;28;20090;-12
2022/06/13 06:15:46;;;;;;;3.00;1.55;;;25.70;41.90;;;29.53;27.21;101499.56;5112025;28;20480;-12
2022/06/13 06:18:15;;;;;;;2.70;1.73;;;25.70;41.80;;;29.56;27.18;101494.75;5111751;28;20040;-12
2022/06/13 06:20:41;;;;;;;2.05;1.23;;;25.80;41.80;;;29.61;27.13;101504.31;5112177;28;20040;-12
2022/06/13 06:23:09;;;;;;;2.25;1.60;;;25.90;41.80;;;29.61;27.17;101502.44;5111989;28;20519;-12
2022/06/13 06:25:35;;;;;;;3.08;1.48;;;25.90;41.60;;;29.67;27.23;101487.56;5111866;28;20400;-12
2022/06/13 06:28:04;;;;;;;2.22;1.50;;;26.00;41.60;;;29.77;27.14;101504.66;5091547;28;20105;-12
2022/06/13 06:30:30;;;;;;;2.53;1.75;;;26.10;41.50;;;29.83;27.14;101505.94;5113388;28;20558;-12
2022/06/13 06:32:58;;;;;;;2.63;1.40;;;26.10;41.30;;;29.85;26.93;101501.25;5115067;28;20118;-12
2022/06/13 06:35:26;;;;;;;2.90;1.55;;;26.20;41.30;;;29.90;27.01;101502.56;5115278;28;20039;-12
2022/06/13 06:37:55;;;;;;;2.67;1.60;;;26.20;41.20;;;29.92;26.86;101510.50;5114847;28;20051;-12
2022/06/13 06:40:25;;;;;;;2.35;1.33;;;26.20;41.30;;;29.92;26.90;101508.66;5114623;28;20048;-12
2022/06/13 06:42:51;;;;;;;2.13;1.50;;;26.10;41.30;;;29.91;27.00;101506.09;5114605;28;20039;-12
2022/06/13 06:45:17;;;;;;;2.88;1.90;;;26.10;41.40;;;29.89;26.87;101510.78;5115437;28;20051;-12
2022/06/13 06:47:44;;;;;;;5.70;1.85;;;26.10;41.40;;;29.87;26.88;101497.44;5115242;28;20055;-12
2022/06/13 06:50:17;;;;;;;2.63;1.50;;;26.10;42.00;;;29.83;27.06;101498.69;5115087;28;20051;-12
2022/06/13 06:52:43;;;;;;;2.15;1.60;;;26.00;41.40;;;29.88;26.90;101511.78;5114687;28;20127;-11
2022/06/13 07:00:47;;;;;;;1.98;1.35;;;26.10;41.40;;;29.89;26.93;101500.84;5115240;28;20071;-11
2022/06/13 07:03:13;;;;;;;2.28;1.50;;;26.10;41.40;;;29.90;26.84;101499.00;5114821;28;20049;-12
2022/06/13 07:05:39;;;;;;;2.58;1.88;;;26.10;41.30;;;29.93;26.88;101506.81;5114554;28;20083;-11
2022/06/13 07:08:05;;;;;;;2.90;1.55;;;26.10;41.40;;;29.92;26.75;101497.88;5114337;28;20139;-12
2022/06/13 07:10:31;;;;;;;3.60;1.80;;;26.10;41.40;;;29.96;26.84;101509.25;5114933;28;20051;-11
2022/06/13 07:12:58;;;;;;;2.92;1.70;;;26.10;41.40;;;29.97;26.81;101515.47;5114769;28;20046;-12
2022/06/13 07:15:24;;;;;;;4.55;1.83;;;26.10;41.40;;;29.97;26.86;101510.94;5114811;28;20168;-12
2022/06/13 07:17:50;;;;;;;2.70;1.52;;;26.10;41.40;;;29.95;26.77;101507.53;5114867;28;20129;-11
2022/06/13 07:20:17;;;;;;;3.75;1.58;;;26.10;41.50;;;29.90;26.77;101502.56;5114665;28;20068;-11
2022/06/13 07:22:50;;;;;;;1.90;1.25;;;26.00;41.50;;;29.91;26.85;101511.50;5096365;28;20422;-11
2022/06/13 07:25:27;;;;;;;2.30;1.50;;;26.00;41.60;;;29.82;26.92;101506.94;5114221;28;20051;-11
2022/06/13 07:27:53;;;;;;;2.17;1.48;;;25.90;41.60;;;29.80;26.98;101509.75;5114131;28;20043;-12
2022/06/13 07:30:23;;;;;;;2.25;1.40;;;25.90;41.70;;;29.83;26.99;101516.72;5114208;28;20422;-11
2022/06/13 07:32:50;;;;;;;2.42;1.75;;;25.90;41.80;;;29.79;26.91;101521.53;5115050;28;20050;-11
2022/06/13 07:35:21;;;;;;;3.28;1.60;;;25.80;41.80;;;29.75;27.06;101517.38;5114035;28;20404;-12
2022/06/13 07:40:32;;;;;;;3.65;1.80;;;25.70;41.80;;;29.64;27.09;101509.41;5114477;28;20274;-11
2022/06/13 07:43:04;;;;;;;5.35;2.20;;;25.70;41.80;;;29.63;27.09;101508.53;5113253;28;20047;-11
2022/06/13 07:45:35;;;;;;;3.22;1.83;;;25.70;41.80;;;29.60;26.89;101516.91;5114759;28;20531;-12
2022/06/13 07:48:02;;;;;;;3.72;1.60;;;25.70;41.90;;;29.60;27.09;101524.13;5114150;28;20052;-12
2022/06/13 07:50:29;;;;;;;3.70;1.40;;;25.70;41.90;;;29.61;27.18;101537.47;5114121;28;20399;-12
2022/06/13 07:52:57;;;;;;;2.58;1.67;;;25.60;41.90;;;29.55;27.29;101530.81;5095852;28;20058;-11
2022/06/13 07:55:25;;;;;;;3.83;1.60;;;25.60;42.00;;;29.53;27.16;101531.91;5113901;28;20044;-12
2022/06/13 07:57:51;;;;;;;2.83;1.98;;;25.60;42.10;;;29.54;27.21;101531.78;5112387;28;20522;-13
2022/06/13 08:00:26;;;;;;;2.95;2.00;;;25.60;42.10;;;29.50;27.31;101533.06;5093044;28;20044;-13
2022/06/13 08:02:54;;;;;;;2.85;1.92;;;25.50;42.10;;;29.44;27.37;101525.50;5093248;28;20043;-12
2022/06/13 08:05:21;;;;;;;3.20;1.63;;;25.50;42.10;;;29.44;27.38;101538.13;5111481;28;20047;-13
2022/06/13 08:07:47;;;;;;;2.40;1.63;;;25.50;42.20;;;29.45;27.06;101542.50;5112080;28;20384;-12
2022/06/13 08:10:13;;;;;;;3.22;1.65;;;25.50;42.20;;;29.40;27.17;101531.28;5112782;28;20055;-12
2022/06/13 08:12:42;;;;;;;2.67;1.80;;;25.50;42.30;;;29.41;27.38;101549.16;5112625;28;20480;-12
2022/06/13 08:15:09;;;;;;;4.13;1.83;;;25.40;42.80;;;29.38;27.31;101580.75;5094391;28;20055;-11
2022/06/13 08:17:35;;;;;;;3.38;1.98;;;25.40;42.20;;;29.33;27.31;101564.13;5113404;28;20046;-12
2022/06/13 08:20:01;;;;;;;3.60;1.80;;;25.40;42.30;;;29.31;27.53;101568.81;5113660;28;20429;-11
2022/06/13 08:22:27;;;;;;;1.95;1.58;;;25.40;42.30;;;29.30;27.43;101561.75;5113449;28;20043;-11
2022/06/13 08:24:53;;;;;;;2.38;1.73;;;25.40;42.30;;;29.32;27.32;101580.44;5113615;28;20487;-12
2022/06/13 08:27:19;;;;;;;4.40;2.05;;;25.30;42.30;;;29.26;27.53;101575.59;5113684;28;20039;-11
2022/06/13 08:29:45;;;;;;;3.25;2.20;;;25.30;42.40;;;29.24;27.42;101581.13;5113900;28;20126;-12
2022/06/13 08:32:13;;;;;;;4.10;1.80;;;25.30;42.40;;;29.27;27.26;101596.13;5113502;28;20925;-11
2022/06/13 08:34:38;;;;;;;3.92;1.85;;;25.30;42.40;;;29.25;27.57;101593.56;5095401;28;20047;-11
2022/06/13 08:37:05;;;;;;;4.53;2.22;;;25.30;42.50;;;29.22;27.47;101593.00;5113393;28;20051;-11
2022/06/13 08:39:31;;;;;;;7.28;2.05;;;25.30;42.50;;;29.19;27.42;101578.81;5113071;28;20043;-12
2022/06/13 08:42:12;;;;;;;3.20;2.00;;;25.30;42.50;;;29.23;27.53;101587.47;5113449;28;20125;-12
2022/06/13 08:45:10;;;;;;;4.55;2.17;;;25.30;42.50;;;29.23;27.41;101581.25;5093599;28;20048;-11
2022/06/13 08:48:07;;;;;;;5.47;1.92;;;25.30;42.50;;;29.19;27.45;101569.88;5093331;28;20079;-12
2022/06/13 08:51:05;;;;;;;11.52;2.50;;;25.30;42.40;;;29.21;27.53;101570.59;5113626;28;20043;-11
2022/06/13 08:53:47;;;;;;;4.78;2.10;;;25.30;42.30;;;29.21;27.65;101576.00;5105283;28;20384;-12
2022/06/13 08:56:16;;;;;;;5.15;2.28;;;25.40;42.30;;;29.23;27.48;101570.47;5094556;28;20092;-11
2022/06/13 08:58:56;;;;;;;5.85;2.67;;;25.40;42.10;;;29.31;27.29;101571.50;5095113;28;20044;-12
2022/06/13 09:01:35;;;;;;;6.80;2.15;;;25.50;42.10;;;29.32;27.42;101581.31;5111717;28;20095;-11
2022/06/13 09:04:21;;;;;;;5.68;2.55;;;25.50;42.00;;;29.33;27.51;101563.28;5112862;28;20040;-13
2022/06/13 09:06:56;;;;;;;5.63;2.10;;;25.50;42.00;;;29.37;27.28;101568.28;5111171;28;20047;-12
2022/06/13 09:09:33;;;;;;;5.80;2.25;;;25.50;42.00;;;29.36;27.18;101563.03;5094801;28;20097;-12
2022/06/13 09:12:15;;;;;;;5.95;2.38;;;25.50;41.90;;;29.35;27.22;101564.00;5095108;28;20076;-12
2022/06/13 09:15:13;;;;;;;6.20;2.55;;;25.50;42.00;;;29.40;27.48;101560.91;5111373;28;20093;-11
2022/06/13 09:17:51;;;;;;;8.52;2.45;;;25.50;42.00;;;29.37;27.29;101557.50;5110373;28;20048;-11
2022/06/13 09:21:05;;;;;;;6.43;2.47;;;25.50;42.00;;;29.40;27.29;101560.91;5111407;28;20044;-13
2022/06/13 09:24:08;;;;;;;8.73;2.40;;;25.50;42.00;;;29.35;27.46;101550.53;5085860;28;20051;-12
2022/06/13 09:26:49;;;;;;;5.60;2.25;;;25.50;42.00;;;29.30;27.22;101548.28;5109818;28;20047;-12
2022/06/13 09:29:48;;;;;;;7.72;2.75;;;25.50;41.90;;;29.39;27.40;101560.06;5111674;28;20040;-12
2022/06/13 09:32:28;;;;;;;9.60;2.67;;;25.50;42.00;;;29.37;27.34;101551.28;5092281;28;20135;-12
2022/06/13 09:35:18;;;;;;;5.90;2.50;;;25.50;42.00;;;29.34;27.26;101555.09;5091719;28;20047;-14
2022/06/13 09:38:03;;;;;;;10.20;3.00;;;25.50;42.00;;;29.38;27.33;101561.91;5109989;28;20044;-13
2022/06/13 09:40:47;;;;;;;7.60;2.53;;;25.50;42.00;;;29.37;27.18;101565.59;5110478;28;20048;-12
2022/06/13 09:43:33;;;;;;;8.40;2.75;;;25.50;42.00;;;29.36;27.33;101554.94;5110503;28;20499;-13
2022/06/13 09:46:37;;;;;;;6.93;2.83;;;25.40;41.90;;;29.37;27.26;101562.06;5111097;28;20095;-13
2022/06/13 09:49:55;;;;;;;7.25;2.65;;;25.50;42.10;;;29.40;27.16;101569.00;5111581;28;20468;-12
2022/06/13 09:52:40;;;;;;;9.02;2.55;;;25.40;42.00;;;29.33;27.48;101560.59;5104993;28;20047;-12
2022/06/13 09:55:31;;;;;;;8.20;3.05;;;25.50;42.10;;;29.36;27.14;101571.13;5112097;28;20074;-12
2022/06/13 09:58:17;;;;;;;8.37;2.97;;;25.50;42.10;;;29.34;27.33;101565.84;5112574;28;20047;-12
2022/06/13 10:01:11;;;;;;;7.68;2.67;;;25.50;42.10;;;29.30;27.19;101564.44;5112321;28;20047;-12
2022/06/13 10:04:19;;;;;;;7.18;2.60;;;25.50;42.10;;;29.33;27.46;101566.00;5094346;28;20400;-12
2022/06/13 10:07:04;;;;;;;6.93;2.92;;;25.50;42.10;;;29.32;27.40;101566.97;5097401;28;20069;-12
2022/06/13 10:10:01;;;;;;;7.00;2.65;;;25.50;42.10;;;29.34;27.49;101576.63;5114539;28;20048;-12
2022/06/13 10:13:16;;;;;;;13.88;3.38;;;25.40;42.10;;;29.34;27.24;101571.25;5115488;28;20047;-12
2022/06/13 10:16:11;;;;;;;7.28;2.40;;;25.40;42.10;;;29.31;27.50;101566.13;5084892;28;20551;-13
2022/06/13 10:19:05;;;;;;;4.70;2.40;;;25.40;42.10;;;29.29;27.49;101560.03;5115541;28;20043;-12
2022/06/13 10:21:47;;;;;;;4.28;2.30;;;25.40;42.10;;;29.33;27.56;101576.75;5114875;28;20051;-13
2022/06/13 10:24:30;;;;;;;5.25;3.03;;;25.50;42.20;;;29.31;27.50;101563.44;5115588;28;20135;-13
2022/06/13 10:27:22;;;;;;;5.82;2.72;;;25.50;42.20;;;29.31;27.24;101571.50;5115414;28;20047;-12
2022/06/13 10:30:25;;;;;;;7.60;2.78;;;25.40;42.10;;;29.29;27.50;101564.56;5097384;28;20054;-12
2022/06/13 10:33:13;;;;;;;4.65;2.65;;;25.40;42.20;;;29.33;27.73;101569.53;5095451;28;20048;-12
2022/06/13 10:36:01;;;;;;;4.57;2.17;;;25.40;42.20;;;29.30;27.32;101569.81;5115415;28;20074;-13
2022/06/13 10:39:01;;;;;;;5.70;2.55;;;25.50;42.20;;;29.34;27.28;101568.56;5113052;28;20048;-14
2022/06/13 10:41:28;;;;;;;6.63;2.53;;;25.50;42.20;;;29.30;27.28;101561.75;5113606;28;20418;-13
2022/06/13 10:44:33;;;;;;;6.45;2.70;;;25.50;42.20;;;29.34;27.47;101571.25;5093840;28;20044;-12
2022/06/13 10:47:14;;;;;;;5.30;2.50;;;25.50;42.10;;;29.34;27.36;101570.41;5113795;28;20503;-13
2022/06/13 10:50:21;;;;;;;10.18;3.25;;;25.50;42.10;;;29.35;27.50;101562.19;5096249;28;20100;-12
2022/06/13 10:52:52;;;;;;;8.75;2.50;;;25.50;42.10;;;29.30;27.54;101555.47;5096278;28;20048;-14
2022/06/13 10:55:23;;;;;;;6.65;2.67;;;25.40;42.00;;;29.33;27.42;101563.28;5112241;28;20048;-15
2022/06/13 10:57:59;;;;;;;7.32;2.28;;;25.40;42.10;;;29.30;27.23;101560.88;5112799;28;20128;-13
2022/06/13 11:00:29;;;;;;;9.05;2.92;;;25.40;42.10;;;29.27;27.30;101553.03;5077586;28;20043;-13
2022/06/13 11:03:17;;;;;;;4.90;2.78;;;25.40;42.10;;;29.26;27.30;101556.75;5094926;28;20048;-13
2022/06/13 11:06:06;;;;;;;7.03;2.63;;;25.40;42.10;;;29.26;27.30;101549.50;5114090;28;20070;-12